Time;durP1;ratioP1;P1;durP2;ratioP2;P2;SDS_P1;SDS_P2;PMS_P1;PMS_P2;Temp;Humidity;BMP_temperature;BMP_pressure;BME280_temperature;BME280_humidity;BME280_pressure;Samples;Min_cycle;Max_cycle;Signal;HPM_P1;HPM_P2
2022/01/19 00:01:28;;;;;;;9.52;4.53;;;;;;;4.76;85.43;101806.09;5011521;28;20041;-68
2022/01/19 00:03:53;;;;;;;7.45;3.58;;;;;;;4.78;84.35;101804.31;5011942;28;20038;-68
2022/01/19 00:06:19;;;;;;;10.85;3.53;;;;;;;4.88;82.73;101804.13;5012876;28;20490;-69
2022/01/19 00:08:45;;;;;;;9.43;4.03;;;;;;;4.91;84.13;101804.94;5011074;28;20030;-68
2022/01/19 00:11:10;;;;;;;8.05;4.70;;;;;;;4.90;84.90;101798.03;4994426;28;20044;-65
2022/01/19 00:13:35;;;;;;;10.02;4.35;;;;;;;4.90;85.10;101802.38;5012349;28;20036;-69
2022/01/19 00:16:01;;;;;;;11.68;4.85;;;;;;;4.86;84.92;101793.78;5012386;28;20033;-65
2022/01/19 00:18:26;;;;;;;10.48;5.20;;;;;;;4.83;84.55;101781.69;5012228;28;20437;-66
2022/01/19 00:20:54;;;;;;;10.60;5.10;;;;;;;4.86;84.75;101773.00;4994624;28;20042;-68
2022/01/19 00:23:20;;;;;;;7.72;4.47;;;;;;;4.85;84.94;101764.31;5012075;28;20060;-67
2022/01/19 00:25:47;;;;;;;9.13;4.63;;;;;;;4.85;85.01;101760.84;5012014;28;20133;-69
2022/01/19 00:28:13;;;;;;;10.88;4.90;;;;;;;4.86;84.77;101754.78;5012160;28;20116;-67
2022/01/19 00:30:40;;;;;;;10.52;4.68;;;;;;;4.84;84.75;101751.34;5011894;28;20025;-67
2022/01/19 00:33:05;;;;;;;9.05;4.78;;;;;;;4.82;84.51;101743.59;5011099;28;20124;-68
2022/01/19 00:35:35;;;;;;;10.95;5.53;;;;;;;4.82;84.82;101747.91;5011605;28;20112;-66
2022/01/19 00:38:00;;;;;;;;;;;;;;;4.80;84.32;101744.50;4994807;28;20041;-67
2022/01/19 00:40:25;;;;;;;10.18;4.30;;;;;;;4.78;84.67;101746.28;5011916;28;20527;-68
2022/01/19 00:42:51;;;;;;;8.98;4.10;;;;;;;4.80;83.98;101752.31;5004323;28;20093;-67
2022/01/19 00:45:17;;;;;;;11.20;4.40;;;;;;;4.82;83.39;101742.72;5011594;28;20025;-66
2022/01/19 00:47:43;;;;;;;9.93;4.07;;;;;;;4.85;83.24;101747.88;5011764;28;20033;-68
2022/01/19 00:50:12;;;;;;;8.80;4.30;;;;;;;4.85;83.28;101758.25;5016545;28;20123;-69
2022/01/19 00:52:38;;;;;;;8.25;4.50;;;;;;;4.87;83.61;101756.50;5011503;28;20041;-68
2022/01/19 00:55:06;;;;;;;7.93;4.18;;;;;;;4.85;82.98;101747.88;4993636;28;20014;-68
2022/01/19 00:57:31;;;;;;;8.85;4.55;;;;;;;4.83;83.40;101750.50;5011544;28;20026;-66
2022/01/19 00:59:56;;;;;;;12.27;4.43;;;;;;;4.81;83.39;101744.47;5014609;28;20132;-67
2022/01/19 01:02:22;;;;;;;7.72;4.40;;;;;;;4.82;83.42;101746.19;5010847;28;20561;-68
2022/01/19 01:04:47;;;;;;;9.57;4.88;;;;;;;4.82;83.38;101737.53;5010680;28;20036;-69
2022/01/19 01:07:12;;;;;;;10.23;3.97;;;;;;;4.82;83.33;101738.41;5010239;28;20041;-69
2022/01/19 01:09:38;;;;;;;10.65;4.55;;;;;;;4.80;83.41;101737.56;5011822;28;20036;-67
2022/01/19 01:12:12;;;;;;;9.82;4.50;;;;;;;4.82;83.32;101740.13;5011297;28;20407;-65
2022/01/19 01:20:11;;;;;;;13.27;4.82;;;;;;;4.79;83.28;101732.41;5007004;28;20107;-66
2022/01/19 01:22:38;;;;;;;14.80;6.03;;;;;;;4.78;82.27;101715.09;5010567;28;20040;-67
2022/01/19 01:25:04;;;;;;;8.38;3.90;;;;;;;4.80;82.02;101715.91;5010685;28;20023;-67
2022/01/19 01:27:29;;;;;;;10.35;4.65;;;;;;;4.79;82.38;101707.28;5010816;28;20014;-68
2022/01/19 01:29:54;;;;;;;14.05;5.07;;;;;;;4.74;82.35;101709.09;5010410;28;20601;-67
2022/01/19 01:32:20;;;;;;;13.20;5.10;;;;;;;4.73;82.64;101703.94;5010387;28;20411;-68
2022/01/19 01:34:46;;;;;;;9.70;4.65;;;;;;;4.68;82.39;101695.38;5010404;28;20034;-66
2022/01/19 01:37:11;;;;;;;11.43;4.15;;;;;;;4.68;82.98;101692.78;5010564;28;20034;-66
2022/01/19 01:39:37;;;;;;;9.68;4.38;;;;;;;4.67;82.63;101680.66;5010820;28;20102;-66
2022/01/19 01:42:08;;;;;;;8.77;4.32;;;;;;;4.65;82.94;101669.47;4992513;28;20050;-65
2022/01/19 01:44:35;;;;;;;11.15;4.68;;;;;;;4.65;82.85;101659.91;4992421;28;20037;-68
2022/01/19 01:47:01;;;;;;;10.90;4.88;;;;;;;4.65;82.77;101657.31;5010004;28;20111;-68
2022/01/19 01:49:41;;;;;;;9.68;4.60;;;;;;;4.63;82.92;101640.03;5016436;28;20030;-65
2022/01/19 01:54:51;;;;;;;9.30;4.28;;;;;;;4.63;83.21;101653.03;5010169;28;20097;-68
2022/01/19 01:57:16;;;;;;;8.20;4.47;;;;;;;4.56;83.74;101647.09;5010568;28;20051;-68
2022/01/19 01:59:42;;;;;;;9.52;4.60;;;;;;;4.55;83.85;101648.00;5018057;28;20101;-69
2022/01/19 02:02:07;;;;;;;8.32;4.18;;;;;;;4.52;83.96;101641.13;4992885;28;20384;-66
2022/01/19 02:04:34;;;;;;;10.15;4.85;;;;;;;4.48;84.13;101639.47;5010058;28;20108;-67
2022/01/19 02:07:26;;;;;;;9.15;4.70;;;;;;;4.52;83.30;101650.66;5007503;28;20029;-67
2022/01/19 02:09:49;;;;;;;10.23;4.28;;;;;;;4.52;83.14;101648.91;5009626;28;20701;-67
2022/01/19 02:23:24;;;;;;;12.48;5.05;;;;;;;4.36;83.78;101588.63;5008798;28;20041;-68
2022/01/19 02:25:53;;;;;;;10.50;4.45;;;;;;;4.23;84.59;101589.78;5025187;28;20098;-69
2022/01/19 02:36:37;;;;;;;10.30;4.63;;;;;;;3.67;87.50;101549.31;5004054;28;20160;-67
2022/01/19 02:41:48;;;;;;;11.98;4.80;;;;;;;3.39;88.53;101532.50;5009717;28;20099;-68
2022/01/19 02:44:27;;;;;;;12.30;6.07;;;;;;;3.29;88.75;101527.50;4991370;28;20492;-69
2022/01/19 02:49:37;;;;;;;10.23;5.07;;;;;;;3.11;89.82;101518.28;5009482;28;20040;-68
2022/01/19 02:52:02;;;;;;;10.63;5.68;;;;;;;3.01;90.32;101515.00;5013634;28;20101;-68
2022/01/19 02:54:29;;;;;;;14.38;5.40;;;;;;;2.93;90.59;101511.69;5009720;28;20032;-68
2022/01/19 02:56:59;;;;;;;10.02;5.53;;;;;;;2.93;90.55;101514.28;5008876;28;20684;-68
2022/01/19 03:10:30;;;;;;;12.52;5.50;;;;;;;2.90;89.40;101498.78;5002411;28;20037;-66
2022/01/19 03:12:55;;;;;;;9.63;5.60;;;;;;;2.90;89.19;101493.59;5008447;28;20030;-68
2022/01/19 03:15:21;;;;;;;12.15;5.65;;;;;;;2.90;89.00;101493.59;5009620;28;20018;-68
2022/01/19 03:17:46;;;;;;;23.33;6.03;;;;;;;2.89;88.88;101494.44;5009095;28;20491;-67
2022/01/19 03:20:12;;;;;;;10.80;4.95;;;;;;;2.87;88.87;101485.88;5005386;28;20647;-68
2022/01/19 03:22:58;;;;;;;9.77;4.63;;;;;;;2.86;88.66;101474.66;5008696;28;20033;-64
2022/01/19 03:25:23;;;;;;;11.63;4.68;;;;;;;2.87;88.29;101467.72;5009026;28;20522;-66
2022/01/19 03:27:49;;;;;;;13.07;5.30;;;;;;;2.88;88.10;101452.16;5009434;28;20036;-68
2022/01/19 03:30:16;;;;;;;9.85;4.72;;;;;;;2.83;87.88;101445.34;5010025;28;20025;-66
2022/01/19 03:32:42;;;;;;;12.43;5.60;;;;;;;2.76;88.29;101430.78;5008991;28;20065;-68
2022/01/19 03:35:09;;;;;;;10.77;5.45;;;;;;;2.72;88.27;101429.97;5008942;28;20041;-69
2022/01/19 03:37:34;;;;;;;9.35;5.00;;;;;;;2.67;88.71;101429.22;5008938;28;20515;-66
2022/01/19 03:40:05;;;;;;;8.65;5.25;;;;;;;2.64;88.84;101437.03;5008969;28;20103;-64
2022/01/19 03:42:33;;;;;;;10.43;5.80;;;;;;;2.57;89.52;101430.22;5009800;28;20515;-67
2022/01/19 03:44:59;;;;;;;12.23;6.40;;;;;;;2.62;89.63;101425.81;4996075;28;20129;-66
2022/01/19 03:47:26;;;;;;;11.18;5.47;;;;;;;2.78;88.64;101413.47;4999186;28;20116;-66
2022/01/19 03:49:52;;;;;;;7.88;5.05;;;;;;;2.89;88.18;101416.72;5008933;28;20041;-66
2022/01/19 03:52:17;;;;;;;11.55;5.20;;;;;;;3.00;87.19;101416.56;4991089;28;20026;-67
2022/01/19 03:54:44;;;;;;;9.68;5.68;;;;;;;3.07;87.45;101412.97;5008731;28;20029;-67
2022/01/19 03:57:11;;;;;;;11.18;5.63;;;;;;;3.15;87.12;101413.69;5008798;28;20683;-67
2022/01/19 03:59:37;;;;;;;9.32;5.53;;;;;;;3.19;86.90;101417.06;5004650;23;20038;-87
2022/01/19 04:02:03;;;;;;;9.52;5.70;;;;;;;3.21;86.95;101403.22;5008906;28;20474;-87
2022/01/19 04:04:40;;;;;;;10.65;5.95;;;;;;;3.24;86.68;101407.50;4999184;28;20054;-86
2022/01/19 04:09:32;;;;;;;11.63;6.22;;;;;;;3.21;86.89;101386.81;5018027;28;20025;-87
2022/01/19 04:11:58;;;;;;;9.38;5.75;;;;;;;3.16;87.24;101381.72;5016069;28;20034;-88
2022/01/19 04:14:25;;;;;;;14.20;6.00;;;;;;;3.12;87.50;101380.06;5016609;28;20036;-90
2022/01/19 04:16:57;;;;;;;10.63;5.90;;;;;;;3.07;87.96;101371.50;4998104;28;20435;-88
2022/01/19 04:19:43;;;;;;;10.40;5.97;;;;;;;3.01;88.32;101362.13;5016067;28;20056;-88
2022/01/19 04:22:14;;;;;;;10.65;5.75;;;;;;;2.99;88.31;101366.47;5015200;28;20049;-88
2022/01/19 04:24:41;;;;;;;9.77;5.53;;;;;;;2.95;88.39;101354.47;5015894;28;20041;-88
2022/01/19 04:30:10;;;;;;;12.48;6.00;;;;;;;2.77;89.22;101342.69;5016381;28;20431;-89
2022/01/19 04:35:28;;;;;;;10.23;5.80;;;;;;;2.64;90.30;101336.03;5018678;28;20056;-87
2022/01/19 05:02:20;;;;;;;9.60;5.28;;;;;;;2.80;88.65;101313.31;5007596;28;20072;-89
2022/01/19 05:05:51;;;;;;;9.13;5.28;;;;;;;2.80;88.71;101303.78;5013116;28;20268;-86
2022/01/19 05:07:43;;;;;;;11.05;5.28;;;;;;;2.81;88.87;101302.91;4998680;28;20049;-88
2022/01/19 05:15:37;;;;;;;10.82;5.50;;;;;;;2.64;89.90;101281.66;5014663;28;20386;-90
2022/01/19 05:18:04;;;;;;;10.82;5.38;;;;;;;2.56;89.86;101276.63;5014273;28;20118;-89
2022/01/19 05:20:32;;;;;;;12.80;5.95;;;;;;;2.49;90.56;101269.84;5014538;28;20038;-89
2022/01/19 05:22:57;;;;;;;18.45;9.95;;;;;;;2.44;90.61;101269.06;5012502;28;20133;-89
2022/01/19 05:25:23;;;;;;;11.05;5.63;;;;;;;2.39;90.51;101263.13;4997145;28;20042;-89
2022/01/19 05:27:48;;;;;;;11.77;6.20;;;;;;;2.37;90.54;101270.03;4995895;28;20109;-87
2022/01/19 05:30:15;;;;;;;16.75;6.82;;;;;;;2.42;90.87;101268.25;5014516;28;20078;-88
2022/01/19 05:32:41;;;;;;;18.08;6.90;;;;;;;2.51;90.28;101272.41;4995592;28;20136;-89
2022/01/19 05:35:09;;;;;;;12.43;6.93;;;;;;;2.57;89.27;101267.13;5014029;28;20065;-88
2022/01/19 05:37:37;;;;;;;15.63;7.22;;;;;;;2.64;89.10;101261.78;4996683;28;20128;-87
2022/01/19 05:40:05;;;;;;;15.10;8.07;;;;;;;2.69;88.05;101255.69;4995640;28;20069;-88
2022/01/19 05:42:33;;;;;;;13.35;7.28;;;;;;;2.73;88.39;101249.56;4996885;28;20136;-88
2022/01/19 05:45:03;;;;;;;15.85;8.80;;;;;;;2.73;88.39;101240.03;5013518;28;20034;-90
2022/01/19 05:47:28;;;;;;;17.95;9.77;;;;;;;2.76;87.82;101241.72;4997050;28;20038;-87
2022/01/19 05:49:54;;;;;;;16.88;9.68;;;;;;;2.76;88.02;101231.38;5000717;28;20041;-87
2022/01/19 05:52:20;;;;;;;21.60;13.80;;;;;;;2.76;87.50;101226.19;5017389;28;20033;-89
2022/01/19 05:54:49;;;;;;;18.98;10.88;;;;;;;2.79;87.53;101220.97;5004952;28;20030;-88
2022/01/19 05:57:18;;;;;;;18.88;11.73;;;;;;;2.78;87.23;101222.69;4997621;28;20034;-88
2022/01/19 05:59:43;;;;;;;24.40;11.80;;;;;;;2.80;87.29;101222.66;5014418;28;20044;-88
2022/01/19 06:02:09;;;;;;;21.02;11.68;;;;;;;2.78;87.77;101217.53;4996927;28;20037;-87
2022/01/19 06:04:34;;;;;;;18.13;11.45;;;;;;;2.78;88.06;101217.53;5012700;28;20038;-88
2022/01/19 06:07:02;;;;;;;18.23;11.50;;;;;;;2.79;88.11;101216.63;4994519;28;20190;-87
2022/01/19 06:09:35;;;;;;;19.88;12.55;;;;;;;2.76;87.46;101208.91;5002212;28;20038;-85
2022/01/19 06:12:04;;;;;;;22.20;13.23;;;;;;;2.74;87.27;101204.63;4987988;28;20435;-88
2022/01/19 06:14:31;;;;;;;26.48;16.13;;;;;;;2.75;86.92;101206.38;4987162;28;20407;-90
2022/01/19 06:17:21;;;;;;;22.40;14.05;;;;;;;2.79;86.67;101210.59;5014753;28;20109;-90
2022/01/19 06:19:49;;;;;;;24.45;15.60;;;;;;;2.83;86.66;101189.78;4995595;28;20573;-87
2022/01/19 06:22:17;;;;;;;25.55;14.60;;;;;;;2.83;86.71;101196.69;4995546;28;20098;-88
2022/01/19 06:24:42;;;;;;;27.70;16.48;;;;;;;2.84;87.30;101194.06;5016706;28;20449;-86
2022/01/19 06:27:08;;;;;;;24.92;15.88;;;;;;;2.95;88.27;101175.72;4998432;28;20064;-88
2022/01/19 06:29:35;;;;;;;23.75;15.40;;;;;;;3.00;87.68;101163.50;4989918;28;20041;-88
2022/01/19 06:32:01;;;;;;;22.85;13.95;;;;;;;3.00;87.36;101155.72;5010534;28;20033;-86
2022/01/19 06:34:29;;;;;;;18.73;12.27;;;;;;;3.13;86.56;101151.16;5013350;28;20044;-86
2022/01/19 06:36:55;;;;;;;19.77;13.50;;;;;;;3.04;86.71;101144.44;5012261;28;20095;-86
2022/01/19 06:39:21;;;;;;;19.45;13.68;;;;;;;2.99;87.05;101155.78;5013377;28;20026;-88
2022/01/19 06:41:52;;;;;;;22.08;15.07;;;;;;;2.86;87.02;101150.03;5013282;28;20119;-87
2022/01/19 06:44:17;;;;;;;24.98;14.70;;;;;;;2.76;87.37;101153.69;5012995;28;20385;-87
2022/01/19 06:46:50;;;;;;;24.02;13.35;;;;;;;2.73;87.48;101144.22;5013055;28;20121;-87
2022/01/19 06:49:16;;;;;;;19.15;12.90;;;;;;;2.67;87.48;101132.28;4995494;28;20048;-87
2022/01/19 06:51:41;;;;;;;17.40;12.00;;;;;;;2.66;87.57;101132.28;5012817;28;20021;-88
2022/01/19 06:54:09;;;;;;;20.08;13.95;;;;;;;2.66;88.12;101132.28;4995970;28;20049;-85
2022/01/19 06:56:37;;;;;;;17.50;11.90;;;;;;;2.63;87.60;101129.75;4997793;28;20442;-88
2022/01/19 06:59:06;;;;;;;21.33;13.07;;;;;;;2.61;87.66;101127.22;5015430;28;20041;-85
2022/01/19 07:01:35;;;;;;;17.98;11.85;;;;;;;2.63;87.73;101133.22;5011803;28;20187;-88
2022/01/19 07:04:04;;;;;;;18.35;11.65;;;;;;;2.63;87.47;101137.53;5004940;28;20029;-88
2022/01/19 07:06:30;;;;;;;18.45;11.15;;;;;;;2.57;87.60;101133.34;4995922;28;20125;-89
2022/01/19 07:08:56;;;;;;;17.10;11.45;;;;;;;2.54;88.14;101125.63;4983857;28;20139;-88
2022/01/19 07:11:21;;;;;;;15.73;11.30;;;;;;;2.52;87.90;101127.41;5008095;28;20030;-87
2022/01/19 07:13:47;;;;;;;15.38;10.68;;;;;;;2.50;87.28;101125.72;5013049;28;20042;-88
2022/01/19 07:16:12;;;;;;;15.80;10.35;;;;;;;2.46;88.06;101122.34;5010253;28;20030;-86
2022/01/19 07:18:38;;;;;;;15.55;10.75;;;;;;;2.45;87.87;101120.66;4995595;28;20041;-88
2022/01/19 07:21:03;;;;;;;14.88;10.48;;;;;;;2.41;87.44;101121.56;4994562;28;20038;-87
2022/01/19 07:23:29;;;;;;;14.52;10.10;;;;;;;2.40;87.32;101110.38;4994648;28;20041;-88
2022/01/19 07:25:54;;;;;;;17.35;10.55;;;;;;;2.43;87.34;101119.81;4996269;28;20528;-87
2022/01/19 07:28:20;;;;;;;13.65;8.85;;;;;;;2.35;87.31;101114.78;5001190;28;20041;-89
2022/01/19 07:30:48;;;;;;;13.40;9.23;;;;;;;2.30;87.22;101126.97;5008391;28;20025;-88
2022/01/19 07:33:16;;;;;;;12.48;8.70;;;;;;;2.27;87.27;101124.44;4995269;28;20017;-87
2022/01/19 07:35:42;;;;;;;16.30;9.75;;;;;;;2.28;87.86;101120.13;4995205;28;20116;-87
2022/01/19 07:38:11;;;;;;;16.90;10.43;;;;;;;2.31;87.95;101114.91;5000316;28;20128;-88
2022/01/19 07:40:39;;;;;;;14.18;9.93;;;;;;;2.27;87.96;101108.06;5016451;28;20120;-87
2022/01/19 07:43:07;;;;;;;15.57;10.57;;;;;;;2.29;88.48;101107.13;5017857;28;20064;-87
2022/01/19 07:45:32;;;;;;;16.00;9.65;;;;;;;2.31;88.37;101107.97;5002977;28;20132;-89
2022/01/19 07:47:58;;;;;;;15.48;10.02;;;;;;;2.31;88.53;101094.19;4998767;28;20126;-88
2022/01/19 07:50:25;;;;;;;18.67;10.70;;;;;;;2.28;88.89;101089.91;5015896;28;20030;-88
2022/01/19 07:52:51;;;;;;;18.25;11.00;;;;;;;2.29;88.93;101088.19;5017767;28;20026;-88
2022/01/19 07:55:16;;;;;;;17.98;10.65;;;;;;;2.33;88.87;101088.06;5012698;28;20092;-88
2022/01/19 07:57:47;;;;;;;16.77;11.35;;;;;;;2.30;88.44;101087.28;5018765;28;20470;-88
2022/01/19 08:00:14;;;;;;;17.25;10.68;;;;;;;2.31;88.44;101079.50;5015501;28;20041;-88
2022/01/19 08:02:40;;;;;;;16.45;10.90;;;;;;;2.32;88.86;101078.63;5016366;28;20041;-88
2022/01/19 08:05:11;;;;;;;17.13;11.35;;;;;;;2.37;88.64;101073.34;5016445;28;20038;-89
2022/01/19 08:07:36;;;;;;;14.63;9.75;;;;;;;2.30;88.64;101077.81;5010030;28;20046;-86
2022/01/19 08:10:06;;;;;;;13.35;9.02;;;;;;;2.22;88.45;101071.91;5020450;28;20041;-87
2022/01/19 08:12:35;;;;;;;14.82;9.10;;;;;;;2.28;88.79;101068.38;5022041;28;20022;-89
2022/01/19 08:15:01;;;;;;;14.77;9.57;;;;;;;2.34;88.90;101069.09;5000450;28;20461;-87
2022/01/19 08:17:27;;;;;;;13.65;8.35;;;;;;;2.36;88.02;101066.47;5002574;28;20038;-87
2022/01/19 08:19:54;;;;;;;14.40;8.43;;;;;;;2.35;88.56;101067.38;5018147;28;20038;-87
2022/01/19 08:22:37;;;;;;;12.48;8.27;;;;;;;2.32;88.51;101054.47;5001119;28;20113;-88
2022/01/19 08:25:04;;;;;;;12.55;8.07;;;;;;;2.37;87.86;101048.34;4999652;28;20401;-88
2022/01/19 08:27:32;;;;;;;18.02;8.60;;;;;;;2.40;87.86;101050.00;5016012;28;20030;-88
2022/01/19 08:29:58;;;;;;;10.80;7.53;;;;;;;2.41;87.80;101060.34;5019378;28;20034;-87
2022/01/19 08:32:24;;;;;;;10.27;6.90;;;;;;;2.41;87.14;101064.63;5016096;28;20044;-88
2022/01/19 08:34:50;;;;;;;11.50;8.05;;;;;;;2.40;87.30;101050.84;5020346;28;20049;-89
2022/01/19 08:37:16;;;;;;;11.32;7.78;;;;;;;2.46;87.67;101047.28;5005174;28;20034;-87
2022/01/19 08:39:42;;;;;;;10.48;7.22;;;;;;;2.50;87.44;101048.91;5001840;28;20576;-87
2022/01/19 08:42:12;;;;;;;11.93;7.88;;;;;;;2.47;86.94;101046.38;5002932;28;20045;-86
2022/01/19 08:44:40;;;;;;;;;;;;;;;2.57;87.19;101044.47;5021176;28;20109;-87
2022/01/19 08:47:06;;;;;;;10.75;7.00;;;;;;;2.60;86.68;101039.22;5033308;28;19960;-88
2022/01/19 08:49:32;;;;;;;10.43;6.80;;;;;;;2.60;86.27;101028.88;5016105;28;20528;-88
2022/01/19 08:51:58;;;;;;;10.80;7.32;;;;;;;2.65;86.65;101019.25;5014653;28;20109;-88
2022/01/19 08:54:24;;;;;;;10.30;6.45;;;;;;;2.71;86.05;101010.47;5016022;28;20105;-89
2022/01/19 08:56:50;;;;;;;14.00;6.82;;;;;;;2.73;85.67;101008.72;4998979;28;20351;-89
2022/01/19 08:59:16;;;;;;;9.38;6.28;;;;;;;2.76;86.11;101003.47;5016348;28;20071;-87
2022/01/19 09:01:41;;;;;;;9.13;6.00;;;;;;;2.82;85.89;101004.19;5011991;28;20058;-87
2022/01/19 09:04:09;;;;;;;14.77;6.50;;;;;;;2.87;86.25;101004.06;5016637;28;20117;-87
2022/01/19 09:06:37;;;;;;;9.73;6.25;;;;;;;2.92;85.48;101007.41;5009235;28;20423;-87
2022/01/19 09:09:10;;;;;;;9.95;6.05;;;;;;;2.93;85.62;101009.13;5014666;28;20033;-87
2022/01/19 09:11:38;;;;;;;9.45;6.30;;;;;;;2.99;85.42;101005.53;5015995;28;20029;-87
2022/01/19 09:14:06;;;;;;;9.80;6.28;;;;;;;3.01;85.12;100999.44;5021214;28;20041;-88
2022/01/19 09:16:36;;;;;;;10.63;6.55;;;;;;;3.02;85.52;100989.91;5030619;28;20038;-89
2022/01/19 09:19:03;;;;;;;9.65;6.38;;;;;;;3.05;85.47;100992.44;5010997;28;20210;-88
2022/01/19 09:21:29;;;;;;;11.18;6.32;;;;;;;3.02;85.24;100985.56;5017595;28;20021;-90
2022/01/19 09:24:00;;;;;;;9.00;5.68;;;;;;;3.08;84.52;100987.19;5014580;28;20044;-86
2022/01/19 09:26:30;;;;;;;10.52;5.45;;;;;;;3.08;84.05;100979.41;5001174;28;20168;-87
2022/01/19 09:28:56;;;;;;;8.75;5.63;;;;;;;3.08;83.82;100974.22;5014736;28;20643;-88
2022/01/19 09:31:24;;;;;;;8.50;5.35;;;;;;;3.04;84.14;100968.28;5019036;28;20045;-87
2022/01/19 09:37:00;;;;;;;8.03;5.77;;;;;;;3.00;83.55;100964.03;4972218;28;20038;-89
2022/01/19 09:39:26;;;;;;;12.65;6.47;;;;;;;3.05;83.17;100961.34;4987282;28;20280;-88
2022/01/19 09:41:53;;;;;;;8.30;5.82;;;;;;;3.06;83.12;100968.22;4984275;28;20513;-88
2022/01/19 09:44:21;;;;;;;8.82;5.55;;;;;;;3.12;83.22;100958.56;4994320;28;20046;-88
2022/01/19 09:49:58;;;;;;;14.38;5.35;;;;;;;2.99;83.98;100959.75;5017701;28;20061;-89
2022/01/19 09:52:40;;;;;;;7.80;5.05;;;;;;;2.99;83.70;100959.75;5016848;28;20030;-88
2022/01/19 09:55:38;;;;;;;11.07;5.28;;;;;;;3.08;84.08;100950.91;4994290;28;20054;-89
2022/01/19 09:58:04;;;;;;;9.57;5.10;;;;;;;3.05;83.28;100940.63;4985492;28;20096;-90
2022/01/19 10:00:47;;;;;;;7.07;5.00;;;;;;;3.07;83.65;100939.66;5002687;28;20766;-88
2022/01/19 10:03:27;;;;;;;7.22;4.95;;;;;;;3.05;83.50;100938.03;5017500;28;20046;-89
2022/01/19 10:06:02;;;;;;;8.40;5.00;;;;;;;3.11;83.62;100941.28;4987651;28;20167;-89
2022/01/19 10:08:54;;;;;;;6.63;4.53;;;;;;;3.10;82.66;100921.44;4975875;28;20043;-88
2022/01/19 10:17:06;;;;;;;6.20;4.13;;;;;;;3.10;82.10;100899.88;4942234;29;20047;-88
2022/01/19 10:20:02;;;;;;;8.95;4.65;;;;;;;3.12;81.96;100903.28;4944392;28;20045;-89
2022/01/19 10:22:58;;;;;;;7.53;4.30;;;;;;;3.13;82.17;100892.88;4938211;28;20089;-88
2022/01/19 10:25:59;;;;;;;7.60;4.53;;;;;;;3.13;82.16;100892.03;4951654;28;20035;-90
2022/01/19 10:28:58;;;;;;;;;;;;;;;;;;;;;
2022/01/19 10:38:57;;;;;;;7.45;5.03;;;;;;;3.31;82.36;100875.16;4917889;29;20028;-91
2022/01/19 10:45:19;;;;;;;5.78;3.60;;;;;;;3.61;81.27;100852.69;4864613;29;20120;-89
2022/01/19 10:51:58;;;;;;;;;;;;;;;;;;;;;
2022/01/19 10:58:41;;;;;;;6.82;3.95;;;;;;;3.96;79.75;100791.94;4886328;29;20049;-89
2022/01/19 11:05:29;;;;;;;7.75;3.70;;;;;;;3.77;79.70;100762.28;4829162;29;20070;-88
2022/01/19 11:08:28;;;;;;;5.20;3.00;;;;;;;3.70;79.98;100760.78;4831385;29;20046;-88
2022/01/19 11:12:04;;;;;;;6.35;4.00;;;;;;;3.94;80.60;100757.44;4840028;29;20259;-89
2022/01/19 11:25:51;;;;;;;7.45;3.42;;;;;;;3.99;80.13;100741.72;4795276;29;20125;-87
2022/01/19 11:28:49;;;;;;;6.45;3.13;;;;;;;3.88;80.47;100739.47;4809779;29;20085;-89
2022/01/19 11:31:42;;;;;;;5.60;3.58;;;;;;;3.91;80.66;100734.19;4788262;29;20127;-88
2022/01/19 11:34:11;;;;;;;6.78;3.65;;;;;;;3.87;80.99;100728.25;4800040;29;20089;-89
2022/01/19 11:37:35;;;;;;;7.07;3.60;;;;;;;3.93;80.58;100727.22;4808362;29;20805;-88
2022/01/19 11:40:26;;;;;;;5.28;3.10;;;;;;;3.93;80.14;100715.97;4801296;29;20042;-89
2022/01/19 11:46:36;;;;;;;7.15;4.03;;;;;;;3.98;80.84;100698.50;4855956;29;20066;-90
2022/01/19 11:49:09;;;;;;;8.45;3.40;;;;;;;4.04;80.55;100699.16;4857802;29;20541;-89
2022/01/19 11:52:15;;;;;;;7.63;2.97;;;;;;;4.06;80.43;100691.31;4881653;29;20121;-90
2022/01/19 11:54:49;;;;;;;6.45;3.22;;;;;;;4.05;79.85;100680.09;4859501;29;20108;-89
2022/01/19 11:57:29;;;;;;;8.77;4.38;;;;;;;4.13;80.06;100677.22;4860090;29;20061;-89
2022/01/19 12:00:22;;;;;;;7.28;3.30;;;;;;;4.19;80.36;100665.78;4860122;29;20451;-89
2022/01/19 12:03:28;;;;;;;;;;;;;;;;;;;;;
2022/01/19 12:06:08;;;;;;;5.15;3.05;;;;;;;4.24;79.29;100643.97;4903345;29;20044;-89
2022/01/19 12:08:42;;;;;;;6.00;3.40;;;;;;;4.31;80.09;100624.69;4925919;29;20353;-89
2022/01/19 12:11:26;;;;;;;8.05;3.47;;;;;;;4.38;79.42;100621.88;4932925;28;20095;-89
2022/01/19 12:14:38;;;;;;;5.80;2.85;;;;;;;4.40;78.38;100613.13;4916640;29;20087;-89
2022/01/19 12:17:09;;;;;;;5.68;2.75;;;;;;;4.41;78.22;100603.56;4887156;29;20049;-88
2022/01/19 12:19:45;;;;;;;5.55;3.05;;;;;;;4.49;78.29;100599.81;4937660;29;20032;-88
2022/01/19 12:22:28;;;;;;;6.00;3.00;;;;;;;4.54;77.58;100589.25;4936205;28;20046;-90
2022/01/19 12:25:37;;;;;;;6.95;3.22;;;;;;;4.58;77.24;100589.06;4949932;29;20551;-88
2022/01/19 12:28:41;;;;;;;7.05;3.00;;;;;;;4.59;77.06;100577.78;4940279;28;20035;-90
2022/01/19 12:31:25;;;;;;;8.05;3.05;;;;;;;4.68;76.70;100578.34;4978709;28;20031;-87
2022/01/19 12:34:10;;;;;;;9.20;3.45;;;;;;;4.72;76.64;100572.13;5001354;28;20066;-86
2022/01/19 12:36:58;;;;;;;7.38;3.33;;;;;;;4.79;76.68;100565.78;5001429;28;20026;-90
2022/01/19 12:39:26;;;;;;;6.28;3.05;;;;;;;4.85;76.52;100570.75;5002381;28;20042;-87
2022/01/19 12:42:21;;;;;;;5.75;3.22;;;;;;;4.94;75.20;100570.41;5018668;28;20168;-89
2022/01/19 12:44:54;;;;;;;6.25;2.67;;;;;;;5.02;74.68;100552.75;4999541;28;20096;-86
2022/01/19 12:47:28;;;;;;;8.55;3.55;;;;;;;5.12;74.00;100539.38;4998079;28;20510;-87
2022/01/19 12:49:57;;;;;;;5.95;2.78;;;;;;;5.18;73.94;100532.16;5007617;28;20029;-88
2022/01/19 12:52:28;;;;;;;5.68;2.90;;;;;;;5.24;72.99;100531.09;5002297;28;20121;-86
2022/01/19 12:55:08;;;;;;;6.72;2.95;;;;;;;5.30;73.47;100520.41;5008688;28;20048;-90
2022/01/19 12:57:33;;;;;;;5.22;2.88;;;;;;;5.34;73.06;100529.81;5001592;28;20018;-88
2022/01/19 12:59:59;;;;;;;6.03;2.65;;;;;;;5.39;72.79;100521.81;5015263;28;20033;-89
2022/01/19 13:02:29;;;;;;;9.00;2.92;;;;;;;5.46;72.60;100518.88;5016772;28;20228;-87
2022/01/19 13:05:04;;;;;;;5.30;2.75;;;;;;;5.45;72.60;100509.41;5001052;28;20038;-88
2022/01/19 13:07:31;;;;;;;8.25;3.72;;;;;;;5.46;72.57;100507.66;5017556;28;20144;-89
2022/01/19 13:15:43;;;;;;;5.90;2.78;;;;;;;5.57;72.25;100505.44;5017434;28;20525;-90
2022/01/19 13:18:12;;;;;;;8.20;3.13;;;;;;;5.53;71.79;100489.13;5013880;28;20042;-88
2022/01/19 13:20:48;;;;;;;;;;;;;;;5.49;71.97;100484.94;5016739;28;20081;-87
2022/01/19 13:23:13;;;;;;;5.68;3.00;;;;;;;5.43;71.98;100477.41;5009407;28;19921;-89
2022/01/19 13:25:41;;;;;;;7.32;3.10;;;;;;;5.39;72.38;100467.22;5032552;28;20017;-88
2022/01/19 13:28:30;;;;;;;4.85;2.75;;;;;;;5.36;72.55;100459.53;5024499;28;20035;-90
2022/01/19 13:30:59;;;;;;;;;;;;;;;5.42;72.84;100461.88;5039261;28;20017;-88
2022/01/19 13:33:28;;;;;;;7.03;3.17;;;;;;;5.42;72.55;100454.91;5008672;28;19928;-88
2022/01/19 13:36:03;;;;;;;6.38;3.05;;;;;;;5.43;72.39;100456.59;5016462;28;20061;-87
2022/01/19 13:38:29;;;;;;;6.55;3.42;;;;;;;5.46;72.95;100456.47;4998013;28;20056;-88
2022/01/19 13:41:07;;;;;;;9.93;3.22;;;;;;;5.50;72.74;100458.03;5017149;28;20042;-87
2022/01/19 13:43:37;;;;;;;6.25;2.85;;;;;;;5.62;72.35;100456.66;4993429;28;20026;-89
2022/01/19 13:46:19;;;;;;;7.43;3.20;;;;;;;5.66;72.35;100442.59;5014546;28;20026;-87
2022/01/19 13:48:47;;;;;;;9.70;3.67;;;;;;;5.82;72.46;100434.94;5005321;28;20061;-88
2022/01/19 13:51:15;;;;;;;7.53;3.45;;;;;;;5.92;70.67;100438.84;5021321;28;20513;-88
2022/01/19 13:53:53;;;;;;;10.80;3.85;;;;;;;6.21;70.17;100434.06;4999077;28;20038;-90
2022/01/19 13:56:30;;;;;;;6.57;3.50;;;;;;;6.32;68.56;100444.00;5006627;28;20125;-89
2022/01/19 13:59:15;;;;;;;10.30;3.47;;;;;;;6.46;68.78;100439.81;5016007;28;20310;-89
2022/01/19 14:01:52;;;;;;;9.25;3.50;;;;;;;6.64;67.46;100429.44;5015779;28;20038;-88
2022/01/19 14:04:18;;;;;;;6.78;3.03;;;;;;;6.63;66.21;100414.72;4997274;28;20119;-89
2022/01/19 14:06:49;;;;;;;8.30;2.90;;;;;;;6.64;66.09;100406.84;5000392;28;20057;-89
2022/01/19 14:09:29;;;;;;;9.50;3.50;;;;;;;6.58;65.95;100407.13;5011661;28;20050;-88